sensor_id;sensor_type;location;lat;lon;timestamp;P1;durP1;ratioP1;P2;durP2;ratioP2
32329;SDS011;18807;52.434;13.238;2023-04-15T00:05:02;42.55;;;22.30;;
32329;SDS011;18807;52.434;13.238;2023-04-15T00:12:47;36.63;;;19.50;;
32329;SDS011;18807;52.434;13.238;2023-04-15T00:36:39;48.08;;;25.30;;
32329;SDS011;18807;52.434;13.238;2023-04-15T00:44:17;47.17;;;23.10;;
32329;SDS011;18807;52.434;13.238;2023-04-15T00:51:51;53.30;;;26.67;;
32329;SDS011;18807;52.434;13.238;2023-04-15T00:59:35;46.38;;;24.48;;
32329;SDS011;18807;52.434;13.238;2023-04-15T01:07:16;47.17;;;23.33;;
32329;SDS011;18807;52.434;13.238;2023-04-15T01:15:04;50.00;;;24.80;;
32329;SDS011;18807;52.434;13.238;2023-04-15T01:22:53;40.75;;;22.58;;
32329;SDS011;18807;52.434;13.238;2023-04-15T01:30:35;52.95;;;25.02;;
32329;SDS011;18807;52.434;13.238;2023-04-15T01:38:31;53.92;;;26.23;;
32329;SDS011;18807;52.434;13.238;2023-04-15T01:46:10;48.53;;;24.48;;
32329;SDS011;18807;52.434;13.238;2023-04-15T01:54:20;50.80;;;25.15;;
32329;SDS011;18807;52.434;13.238;2023-04-15T02:02:10;51.75;;;26.35;;
32329;SDS011;18807;52.434;13.238;2023-04-15T02:09:53;45.38;;;22.90;;
32329;SDS011;18807;52.434;13.238;2023-04-15T02:17:46;49.17;;;23.73;;
32329;SDS011;18807;52.434;13.238;2023-04-15T02:25:33;55.13;;;26.90;;
32329;SDS011;18807;52.434;13.238;2023-04-15T02:33:08;51.17;;;24.98;;
32329;SDS011;18807;52.434;13.238;2023-04-15T02:40:57;48.20;;;24.85;;
32329;SDS011;18807;52.434;13.238;2023-04-15T02:48:33;58.47;;;27.20;;
32329;SDS011;18807;52.434;13.238;2023-04-15T03:12:08;54.85;;;26.08;;
32329;SDS011;18807;52.434;13.238;2023-04-15T03:19:50;45.13;;;23.95;;
32329;SDS011;18807;52.434;13.238;2023-04-15T03:27:37;41.65;;;22.45;;
32329;SDS011;18807;52.434;13.238;2023-04-15T03:35:18;60.50;;;26.55;;
32329;SDS011;18807;52.434;13.238;2023-04-15T03:42:52;54.97;;;26.65;;
32329;SDS011;18807;52.434;13.238;2023-04-15T03:51:05;54.03;;;26.40;;
32329;SDS011;18807;52.434;13.238;2023-04-15T03:58:58;50.58;;;23.40;;
32329;SDS011;18807;52.434;13.238;2023-04-15T04:06:43;63.45;;;25.92;;
32329;SDS011;18807;52.434;13.238;2023-04-15T04:14:25;43.83;;;23.88;;
32329;SDS011;18807;52.434;13.238;2023-04-15T04:22:10;49.60;;;23.55;;
32329;SDS011;18807;52.434;13.238;2023-04-15T04:29:54;43.47;;;22.50;;
32329;SDS011;18807;52.434;13.238;2023-04-15T04:38:01;46.20;;;22.52;;
32329;SDS011;18807;52.434;13.238;2023-04-15T04:45:37;42.90;;;22.67;;
32329;SDS011;18807;52.434;13.238;2023-04-15T04:53:14;37.65;;;21.20;;
32329;SDS011;18807;52.434;13.238;2023-04-15T05:01:19;40.65;;;22.05;;
32329;SDS011;18807;52.434;13.238;2023-04-15T05:16:52;44.28;;;22.08;;
32329;SDS011;18807;52.434;13.238;2023-04-15T05:24:34;38.05;;;20.15;;
32329;SDS011;18807;52.434;13.238;2023-04-15T05:32:46;36.08;;;21.23;;
32329;SDS011;18807;52.434;13.238;2023-04-15T05:40:21;41.35;;;21.40;;
32329;SDS011;18807;52.434;13.238;2023-04-15T05:48:01;34.40;;;18.85;;
32329;SDS011;18807;52.434;13.238;2023-04-15T05:55:42;31.23;;;19.55;;
32329;SDS011;18807;52.434;13.238;2023-04-15T06:03:23;30.15;;;19.20;;
32329;SDS011;18807;52.434;13.238;2023-04-15T06:27:28;35.97;;;20.92;;
32329;SDS011;18807;52.434;13.238;2023-04-15T06:35:13;30.05;;;18.75;;
32329;SDS011;18807;52.434;13.238;2023-04-15T06:42:53;30.40;;;18.23;;
32329;SDS011;18807;52.434;13.238;2023-04-15T06:50:29;30.98;;;19.17;;
32329;SDS011;18807;52.434;13.238;2023-04-15T06:58:03;30.88;;;18.40;;
32329;SDS011;18807;52.434;13.238;2023-04-15T07:05:38;25.10;;;17.33;;
32329;SDS011;18807;52.434;13.238;2023-04-15T07:13:13;29.10;;;17.92;;
32329;SDS011;18807;52.434;13.238;2023-04-15T07:20:56;23.95;;;15.70;;
32329;SDS011;18807;52.434;13.238;2023-04-15T07:28:53;23.13;;;16.25;;
32329;SDS011;18807;52.434;13.238;2023-04-15T07:36:28;22.65;;;15.85;;
32329;SDS011;18807;52.434;13.238;2023-04-15T07:44:02;22.98;;;15.68;;
32329;SDS011;18807;52.434;13.238;2023-04-15T07:51:46;21.45;;;15.32;;
32329;SDS011;18807;52.434;13.238;2023-04-15T07:59:29;22.55;;;15.30;;
32329;SDS011;18807;52.434;13.238;2023-04-15T08:07:06;19.60;;;14.25;;
32329;SDS011;18807;52.434;13.238;2023-04-15T08:14:48;22.40;;;15.52;;
32329;SDS011;18807;52.434;13.238;2023-04-15T08:22:36;17.50;;;13.50;;
32329;SDS011;18807;52.434;13.238;2023-04-15T08:30:10;22.05;;;15.23;;
32329;SDS011;18807;52.434;13.238;2023-04-15T08:37:52;21.85;;;14.05;;
32329;SDS011;18807;52.434;13.238;2023-04-15T08:45:40;20.02;;;14.38;;
32329;SDS011;18807;52.434;13.238;2023-04-15T08:53:23;21.95;;;15.77;;
32329;SDS011;18807;52.434;13.238;2023-04-15T09:01:05;21.02;;;15.00;;
32329;SDS011;18807;52.434;13.238;2023-04-15T09:08:55;20.35;;;14.70;;
32329;SDS011;18807;52.434;13.238;2023-04-15T09:17:12;19.52;;;14.68;;
32329;SDS011;18807;52.434;13.238;2023-04-15T09:25:33;23.10;;;15.93;;
32329;SDS011;18807;52.434;13.238;2023-04-15T09:33:21;21.70;;;14.88;;
32329;SDS011;18807;52.434;13.238;2023-04-15T09:41:04;20.60;;;14.40;;
32329;SDS011;18807;52.434;13.238;2023-04-15T09:49:23;19.52;;;14.50;;
32329;SDS011;18807;52.434;13.238;2023-04-15T09:57:03;17.67;;;14.20;;
32329;SDS011;18807;52.434;13.238;2023-04-15T10:04:47;18.90;;;14.07;;
32329;SDS011;18807;52.434;13.238;2023-04-15T10:12:30;17.95;;;14.48;;
32329;SDS011;18807;52.434;13.238;2023-04-15T10:28:40;20.65;;;14.52;;
32329;SDS011;18807;52.434;13.238;2023-04-15T10:37:41;18.75;;;13.95;;
32329;SDS011;18807;52.434;13.238;2023-04-15T10:44:21;17.30;;;13.65;;
32329;SDS011;18807;52.434;13.238;2023-04-15T10:52:08;18.17;;;13.55;;
32329;SDS011;18807;52.434;13.238;2023-04-15T10:59:59;18.88;;;12.95;;
32329;SDS011;18807;52.434;13.238;2023-04-15T11:07:50;15.70;;;12.20;;
32329;SDS011;18807;52.434;13.238;2023-04-15T11:16:01;17.48;;;13.05;;
32329;SDS011;18807;52.434;13.238;2023-04-15T11:23:49;19.90;;;13.52;;
32329;SDS011;18807;52.434;13.238;2023-04-15T11:32:07;14.68;;;11.38;;
32329;SDS011;18807;52.434;13.238;2023-04-15T11:40:05;15.73;;;12.13;;
32329;SDS011;18807;52.434;13.238;2023-04-15T11:56:26;16.20;;;12.25;;
32329;SDS011;18807;52.434;13.238;2023-04-15T12:04:13;14.93;;;11.27;;
32329;SDS011;18807;52.434;13.238;2023-04-15T12:12:00;15.07;;;11.88;;
32329;SDS011;18807;52.434;13.238;2023-04-15T12:19:41;17.17;;;12.50;;
32329;SDS011;18807;52.434;13.238;2023-04-15T12:27:16;17.27;;;12.80;;
32329;SDS011;18807;52.434;13.238;2023-04-15T12:34:52;17.33;;;11.48;;
32329;SDS011;18807;52.434;13.238;2023-04-15T12:42:59;17.20;;;12.30;;
32329;SDS011;18807;52.434;13.238;2023-04-15T12:50:39;16.65;;;12.13;;
32329;SDS011;18807;52.434;13.238;2023-04-15T12:58:13;16.65;;;11.75;;
32329;SDS011;18807;52.434;13.238;2023-04-15T13:05:51;15.23;;;12.02;;
32329;SDS011;18807;52.434;13.238;2023-04-15T13:13:25;12.32;;;10.00;;
32329;SDS011;18807;52.434;13.238;2023-04-15T13:21:15;16.08;;;11.05;;
32329;SDS011;18807;52.434;13.238;2023-04-15T13:36:47;13.60;;;10.68;;
32329;SDS011;18807;52.434;13.238;2023-04-15T13:44:23;16.33;;;12.15;;
32329;SDS011;18807;52.434;13.238;2023-04-15T13:51:59;14.43;;;10.35;;
32329;SDS011;18807;52.434;13.238;2023-04-15T13:59:33;14.90;;;10.60;;
32329;SDS011;18807;52.434;13.238;2023-04-15T14:07:16;12.95;;;9.38;;
32329;SDS011;18807;52.434;13.238;2023-04-15T14:15:04;12.57;;;8.82;;
32329;SDS011;18807;52.434;13.238;2023-04-15T14:22:46;11.48;;;8.38;;
32329;SDS011;18807;52.434;13.238;2023-04-15T14:30:36;11.77;;;10.05;;
32329;SDS011;18807;52.434;13.238;2023-04-15T14:38:28;10.52;;;8.32;;
32329;SDS011;18807;52.434;13.238;2023-04-15T14:46:02;10.15;;;8.07;;
32329;SDS011;18807;52.434;13.238;2023-04-15T14:53:51;9.02;;;7.18;;
32329;SDS011;18807;52.434;13.238;2023-04-15T15:01:38;11.43;;;8.57;;
32329;SDS011;18807;52.434;13.238;2023-04-15T15:09:16;14.30;;;10.45;;
32329;SDS011;18807;52.434;13.238;2023-04-15T15:17:09;10.80;;;8.23;;
32329;SDS011;18807;52.434;13.238;2023-04-15T15:24:44;10.45;;;8.07;;
32329;SDS011;18807;52.434;13.238;2023-04-15T15:32:22;11.00;;;8.52;;
32329;SDS011;18807;52.434;13.238;2023-04-15T15:40:12;10.00;;;7.37;;
32329;SDS011;18807;52.434;13.238;2023-04-15T15:48:06;8.00;;;6.45;;
32329;SDS011;18807;52.434;13.238;2023-04-15T15:55:47;13.32;;;8.98;;
32329;SDS011;18807;52.434;13.238;2023-04-15T16:03:29;9.30;;;7.85;;
32329;SDS011;18807;52.434;13.238;2023-04-15T16:19:02;11.88;;;9.30;;
32329;SDS011;18807;52.434;13.238;2023-04-15T16:26:38;11.63;;;9.23;;
32329;SDS011;18807;52.434;13.238;2023-04-15T16:42:33;12.68;;;9.35;;
32329;SDS011;18807;52.434;13.238;2023-04-15T16:50:21;12.20;;;9.43;;
32329;SDS011;18807;52.434;13.238;2023-04-15T16:58:12;8.40;;;7.25;;
32329;SDS011;18807;52.434;13.238;2023-04-15T17:05:52;9.63;;;7.03;;
32329;SDS011;18807;52.434;13.238;2023-04-15T17:13:33;8.80;;;7.25;;
32329;SDS011;18807;52.434;13.238;2023-04-15T17:21:17;12.23;;;8.48;;
32329;SDS011;18807;52.434;13.238;2023-04-15T17:28:52;10.60;;;8.25;;
32329;SDS011;18807;52.434;13.238;2023-04-15T17:36:38;11.50;;;9.25;;
32329;SDS011;18807;52.434;13.238;2023-04-15T17:44:27;13.25;;;8.98;;
32329;SDS011;18807;52.434;13.238;2023-04-15T17:52:01;13.43;;;9.07;;
32329;SDS011;18807;52.434;13.238;2023-04-15T18:07:56;7.57;;;6.35;;
32329;SDS011;18807;52.434;13.238;2023-04-15T18:23:47;9.90;;;7.90;;
32329;SDS011;18807;52.434;13.238;2023-04-15T18:31:20;11.35;;;8.32;;
32329;SDS011;18807;52.434;13.238;2023-04-15T18:39:05;9.27;;;7.43;;
32329;SDS011;18807;52.434;13.238;2023-04-15T18:47:11;12.80;;;9.52;;
32329;SDS011;18807;52.434;13.238;2023-04-15T18:54:46;10.80;;;8.18;;
32329;SDS011;18807;52.434;13.238;2023-04-15T19:02:39;10.25;;;8.30;;
32329;SDS011;18807;52.434;13.238;2023-04-15T19:19:18;12.10;;;9.40;;
32329;SDS011;18807;52.434;13.238;2023-04-15T19:27:30;14.02;;;9.75;;
32329;SDS011;18807;52.434;13.238;2023-04-15T19:44:18;14.10;;;11.45;;
32329;SDS011;18807;52.434;13.238;2023-04-15T19:52:24;11.82;;;9.20;;
32329;SDS011;18807;52.434;13.238;2023-04-15T20:00:32;15.70;;;10.55;;
32329;SDS011;18807;52.434;13.238;2023-04-15T20:08:31;14.20;;;10.88;;
32329;SDS011;18807;52.434;13.238;2023-04-15T20:16:26;15.27;;;11.05;;
32329;SDS011;18807;52.434;13.238;2023-04-15T20:24:02;20.35;;;14.73;;
32329;SDS011;18807;52.434;13.238;2023-04-15T20:40:21;25.45;;;17.80;;
32329;SDS011;18807;52.434;13.238;2023-04-15T20:48:07;25.02;;;17.50;;
32329;SDS011;18807;52.434;13.238;2023-04-15T21:03:50;21.60;;;16.05;;
32329;SDS011;18807;52.434;13.238;2023-04-15T21:11:34;22.00;;;15.73;;
32329;SDS011;18807;52.434;13.238;2023-04-15T21:19:27;25.35;;;16.63;;
32329;SDS011;18807;52.434;13.238;2023-04-15T21:35:07;25.23;;;16.93;;
32329;SDS011;18807;52.434;13.238;2023-04-15T21:43:12;23.50;;;17.17;;
32329;SDS011;18807;52.434;13.238;2023-04-15T21:50:48;25.83;;;17.35;;
32329;SDS011;18807;52.434;13.238;2023-04-15T21:58:38;25.73;;;16.08;;
32329;SDS011;18807;52.434;13.238;2023-04-15T22:06:44;22.92;;;15.80;;
32329;SDS011;18807;52.434;13.238;2023-04-15T22:22:30;21.48;;;15.82;;
32329;SDS011;18807;52.434;13.238;2023-04-15T22:30:23;23.20;;;14.63;;
32329;SDS011;18807;52.434;13.238;2023-04-15T22:38:09;20.83;;;15.45;;
32329;SDS011;18807;52.434;13.238;2023-04-15T22:53:50;20.95;;;15.32;;
32329;SDS011;18807;52.434;13.238;2023-04-15T23:01:40;20.83;;;14.38;;
32329;SDS011;18807;52.434;13.238;2023-04-15T23:09:19;18.70;;;13.57;;
32329;SDS011;18807;52.434;13.238;2023-04-15T23:17:07;21.02;;;15.65;;
32329;SDS011;18807;52.434;13.238;2023-04-15T23:32:43;25.48;;;17.25;;
32329;SDS011;18807;52.434;13.238;2023-04-15T23:48:22;30.52;;;18.80;;
32329;SDS011;18807;52.434;13.238;2023-04-15T23:56:04;32.80;;;21.85;;
